sensor_id;sensor_type;location;lat;lon;timestamp;P1;durP1;ratioP1;P2;durP2;ratioP2
21175;SDS011;10746;50.178;8.186;2022-12-18T00:02:14;24.60;;;11.23;;
21175;SDS011;10746;50.178;8.186;2022-12-18T00:04:41;18.73;;;9.00;;
21175;SDS011;10746;50.178;8.186;2022-12-18T00:07:08;16.67;;;8.80;;
21175;SDS011;10746;50.178;8.186;2022-12-18T00:09:35;20.87;;;9.40;;
21175;SDS011;10746;50.178;8.186;2022-12-18T00:12:02;19.50;;;8.43;;
21175;SDS011;10746;50.178;8.186;2022-12-18T00:14:29;20.30;;;9.40;;
21175;SDS011;10746;50.178;8.186;2022-12-18T00:16:57;22.00;;;9.80;;
21175;SDS011;10746;50.178;8.186;2022-12-18T00:19:25;24.33;;;10.33;;
21175;SDS011;10746;50.178;8.186;2022-12-18T00:21:52;20.93;;;9.17;;
21175;SDS011;10746;50.178;8.186;2022-12-18T00:24:19;19.23;;;9.37;;
21175;SDS011;10746;50.178;8.186;2022-12-18T00:26:46;22.83;;;9.87;;
21175;SDS011;10746;50.178;8.186;2022-12-18T00:29:13;22.80;;;9.70;;
21175;SDS011;10746;50.178;8.186;2022-12-18T00:31:40;21.83;;;8.90;;
21175;SDS011;10746;50.178;8.186;2022-12-18T00:34:10;20.80;;;9.70;;
21175;SDS011;10746;50.178;8.186;2022-12-18T00:36:38;25.67;;;9.90;;
21175;SDS011;10746;50.178;8.186;2022-12-18T00:39:05;22.20;;;9.47;;
21175;SDS011;10746;50.178;8.186;2022-12-18T00:41:32;25.83;;;11.23;;
21175;SDS011;10746;50.178;8.186;2022-12-18T00:44:17;22.17;;;9.77;;
21175;SDS011;10746;50.178;8.186;2022-12-18T00:46:45;19.47;;;9.13;;
21175;SDS011;10746;50.178;8.186;2022-12-18T00:49:14;25.03;;;11.50;;
21175;SDS011;10746;50.178;8.186;2022-12-18T00:51:41;27.67;;;11.67;;
21175;SDS011;10746;50.178;8.186;2022-12-18T00:54:08;28.60;;;12.33;;
21175;SDS011;10746;50.178;8.186;2022-12-18T00:56:35;30.20;;;12.40;;
21175;SDS011;10746;50.178;8.186;2022-12-18T00:59:03;31.63;;;13.27;;
21175;SDS011;10746;50.178;8.186;2022-12-18T01:01:30;26.37;;;10.97;;
21175;SDS011;10746;50.178;8.186;2022-12-18T01:03:57;23.37;;;11.07;;
21175;SDS011;10746;50.178;8.186;2022-12-18T01:06:26;26.57;;;11.13;;
21175;SDS011;10746;50.178;8.186;2022-12-18T01:08:53;28.60;;;12.47;;
21175;SDS011;10746;50.178;8.186;2022-12-18T01:11:20;33.37;;;13.77;;
21175;SDS011;10746;50.178;8.186;2022-12-18T01:13:48;32.80;;;13.10;;
21175;SDS011;10746;50.178;8.186;2022-12-18T01:16:16;28.07;;;13.10;;
21175;SDS011;10746;50.178;8.186;2022-12-18T01:18:43;34.17;;;13.10;;
21175;SDS011;10746;50.178;8.186;2022-12-18T01:21:11;30.70;;;13.47;;
21175;SDS011;10746;50.178;8.186;2022-12-18T01:23:44;32.70;;;14.03;;
21175;SDS011;10746;50.178;8.186;2022-12-18T01:26:12;32.57;;;14.90;;
21175;SDS011;10746;50.178;8.186;2022-12-18T01:28:40;38.93;;;14.37;;
21175;SDS011;10746;50.178;8.186;2022-12-18T01:31:14;29.53;;;12.67;;
21175;SDS011;10746;50.178;8.186;2022-12-18T01:33:43;33.73;;;12.87;;
21175;SDS011;10746;50.178;8.186;2022-12-18T01:36:14;28.40;;;12.40;;
21175;SDS011;10746;50.178;8.186;2022-12-18T01:38:43;26.37;;;11.20;;
21175;SDS011;10746;50.178;8.186;2022-12-18T01:41:10;29.17;;;13.67;;
21175;SDS011;10746;50.178;8.186;2022-12-18T01:43:41;27.07;;;11.80;;
21175;SDS011;10746;50.178;8.186;2022-12-18T01:46:09;35.70;;;13.40;;
21175;SDS011;10746;50.178;8.186;2022-12-18T01:48:36;29.87;;;13.03;;
21175;SDS011;10746;50.178;8.186;2022-12-18T01:51:03;31.57;;;13.93;;
21175;SDS011;10746;50.178;8.186;2022-12-18T01:53:32;37.57;;;14.27;;
21175;SDS011;10746;50.178;8.186;2022-12-18T01:56:00;28.77;;;13.00;;
21175;SDS011;10746;50.178;8.186;2022-12-18T01:58:27;38.50;;;14.03;;
21175;SDS011;10746;50.178;8.186;2022-12-18T02:00:58;35.83;;;14.63;;
21175;SDS011;10746;50.178;8.186;2022-12-18T02:03:25;32.23;;;14.00;;
21175;SDS011;10746;50.178;8.186;2022-12-18T02:05:53;33.37;;;14.97;;
21175;SDS011;10746;50.178;8.186;2022-12-18T02:08:27;32.77;;;12.80;;
21175;SDS011;10746;50.178;8.186;2022-12-18T02:11:03;30.47;;;12.63;;
21175;SDS011;10746;50.178;8.186;2022-12-18T02:13:36;31.03;;;12.87;;
21175;SDS011;10746;50.178;8.186;2022-12-18T02:16:11;31.13;;;13.40;;
21175;SDS011;10746;50.178;8.186;2022-12-18T02:18:45;29.47;;;13.23;;
21175;SDS011;10746;50.178;8.186;2022-12-18T02:21:19;31.57;;;13.63;;
21175;SDS011;10746;50.178;8.186;2022-12-18T02:23:53;32.17;;;14.83;;
21175;SDS011;10746;50.178;8.186;2022-12-18T02:26:30;36.40;;;12.83;;
21175;SDS011;10746;50.178;8.186;2022-12-18T02:29:03;29.20;;;12.10;;
21175;SDS011;10746;50.178;8.186;2022-12-18T02:31:35;33.07;;;13.47;;
21175;SDS011;10746;50.178;8.186;2022-12-18T02:34:07;34.27;;;13.67;;
21175;SDS011;10746;50.178;8.186;2022-12-18T02:36:36;26.30;;;11.53;;
21175;SDS011;10746;50.178;8.186;2022-12-18T02:39:06;31.53;;;12.43;;
21175;SDS011;10746;50.178;8.186;2022-12-18T02:41:37;31.80;;;13.40;;
21175;SDS011;10746;50.178;8.186;2022-12-18T02:44:07;27.57;;;11.50;;
21175;SDS011;10746;50.178;8.186;2022-12-18T02:46:36;25.83;;;12.23;;
21175;SDS011;10746;50.178;8.186;2022-12-18T02:49:07;24.43;;;10.80;;
21175;SDS011;10746;50.178;8.186;2022-12-18T02:51:47;28.77;;;13.20;;
21175;SDS011;10746;50.178;8.186;2022-12-18T02:54:21;29.80;;;12.37;;
21175;SDS011;10746;50.178;8.186;2022-12-18T02:57:02;32.73;;;13.20;;
21175;SDS011;10746;50.178;8.186;2022-12-18T02:59:39;27.00;;;12.07;;
21175;SDS011;10746;50.178;8.186;2022-12-18T03:02:19;32.97;;;12.83;;
21175;SDS011;10746;50.178;8.186;2022-12-18T03:04:53;32.97;;;13.27;;
21175;SDS011;10746;50.178;8.186;2022-12-18T03:07:26;24.70;;;10.50;;
21175;SDS011;10746;50.178;8.186;2022-12-18T03:09:59;26.93;;;12.13;;
21175;SDS011;10746;50.178;8.186;2022-12-18T03:12:29;30.67;;;13.07;;
21175;SDS011;10746;50.178;8.186;2022-12-18T03:14:59;32.40;;;12.80;;
21175;SDS011;10746;50.178;8.186;2022-12-18T03:17:31;30.00;;;12.10;;
21175;SDS011;10746;50.178;8.186;2022-12-18T03:20:00;26.30;;;10.77;;
21175;SDS011;10746;50.178;8.186;2022-12-18T03:22:32;29.17;;;12.50;;
21175;SDS011;10746;50.178;8.186;2022-12-18T03:25:01;24.70;;;11.00;;
21175;SDS011;10746;50.178;8.186;2022-12-18T03:27:32;28.70;;;12.57;;
21175;SDS011;10746;50.178;8.186;2022-12-18T03:30:03;36.50;;;13.80;;
21175;SDS011;10746;50.178;8.186;2022-12-18T03:32:33;19.57;;;9.47;;
21175;SDS011;10746;50.178;8.186;2022-12-18T03:35:05;22.87;;;11.07;;
21175;SDS011;10746;50.178;8.186;2022-12-18T03:37:35;28.47;;;12.30;;
21175;SDS011;10746;50.178;8.186;2022-12-18T03:40:02;24.23;;;11.00;;
21175;SDS011;10746;50.178;8.186;2022-12-18T03:42:32;25.63;;;11.17;;
21175;SDS011;10746;50.178;8.186;2022-12-18T03:45:08;30.17;;;12.67;;
21175;SDS011;10746;50.178;8.186;2022-12-18T03:47:38;23.70;;;10.17;;
21175;SDS011;10746;50.178;8.186;2022-12-18T03:50:14;32.03;;;13.23;;
21175;SDS011;10746;50.178;8.186;2022-12-18T03:52:46;29.73;;;12.03;;
21175;SDS011;10746;50.178;8.186;2022-12-18T03:55:17;32.83;;;12.47;;
21175;SDS011;10746;50.178;8.186;2022-12-18T03:57:47;26.77;;;11.73;;
21175;SDS011;10746;50.178;8.186;2022-12-18T04:00:16;32.07;;;12.67;;
21175;SDS011;10746;50.178;8.186;2022-12-18T04:02:44;35.77;;;13.23;;
21175;SDS011;10746;50.178;8.186;2022-12-18T04:05:15;28.47;;;12.07;;
21175;SDS011;10746;50.178;8.186;2022-12-18T04:07:44;26.27;;;12.77;;
21175;SDS011;10746;50.178;8.186;2022-12-18T04:10:12;29.00;;;12.53;;
21175;SDS011;10746;50.178;8.186;2022-12-18T04:12:41;27.13;;;11.23;;
21175;SDS011;10746;50.178;8.186;2022-12-18T04:15:10;34.90;;;13.47;;
21175;SDS011;10746;50.178;8.186;2022-12-18T04:17:38;24.00;;;10.97;;
21175;SDS011;10746;50.178;8.186;2022-12-18T04:20:09;27.17;;;12.20;;
21175;SDS011;10746;50.178;8.186;2022-12-18T04:22:36;26.47;;;11.57;;
21175;SDS011;10746;50.178;8.186;2022-12-18T04:25:03;24.10;;;10.90;;
21175;SDS011;10746;50.178;8.186;2022-12-18T04:27:30;28.33;;;11.33;;
21175;SDS011;10746;50.178;8.186;2022-12-18T04:29:57;23.40;;;10.63;;
21175;SDS011;10746;50.178;8.186;2022-12-18T04:32:25;26.40;;;11.17;;
21175;SDS011;10746;50.178;8.186;2022-12-18T04:34:52;27.60;;;10.93;;
21175;SDS011;10746;50.178;8.186;2022-12-18T04:37:18;25.07;;;10.43;;
21175;SDS011;10746;50.178;8.186;2022-12-18T04:39:45;25.20;;;11.17;;
21175;SDS011;10746;50.178;8.186;2022-12-18T04:42:12;23.77;;;11.27;;
21175;SDS011;10746;50.178;8.186;2022-12-18T04:44:39;27.60;;;11.87;;
21175;SDS011;10746;50.178;8.186;2022-12-18T04:47:05;20.27;;;10.63;;
21175;SDS011;10746;50.178;8.186;2022-12-18T04:49:33;22.67;;;9.07;;
21175;SDS011;10746;50.178;8.186;2022-12-18T04:52:00;26.07;;;10.90;;
21175;SDS011;10746;50.178;8.186;2022-12-18T04:54:27;29.80;;;11.93;;
21175;SDS011;10746;50.178;8.186;2022-12-18T04:56:54;27.43;;;10.67;;
21175;SDS011;10746;50.178;8.186;2022-12-18T04:59:20;23.57;;;10.97;;
21175;SDS011;10746;50.178;8.186;2022-12-18T05:01:47;23.33;;;10.40;;
21175;SDS011;10746;50.178;8.186;2022-12-18T05:04:14;26.30;;;10.90;;
21175;SDS011;10746;50.178;8.186;2022-12-18T05:06:42;23.27;;;10.00;;
21175;SDS011;10746;50.178;8.186;2022-12-18T05:09:09;23.33;;;10.80;;
21175;SDS011;10746;50.178;8.186;2022-12-18T05:11:36;22.23;;;9.97;;
21175;SDS011;10746;50.178;8.186;2022-12-18T05:14:02;23.17;;;9.63;;
21175;SDS011;10746;50.178;8.186;2022-12-18T05:16:29;25.07;;;11.60;;
21175;SDS011;10746;50.178;8.186;2022-12-18T05:18:56;24.30;;;11.30;;
21175;SDS011;10746;50.178;8.186;2022-12-18T05:21:23;21.27;;;9.50;;
21175;SDS011;10746;50.178;8.186;2022-12-18T05:23:51;24.67;;;10.50;;
21175;SDS011;10746;50.178;8.186;2022-12-18T05:26:18;21.30;;;9.63;;
21175;SDS011;10746;50.178;8.186;2022-12-18T05:28:44;28.43;;;11.33;;
21175;SDS011;10746;50.178;8.186;2022-12-18T05:31:12;23.47;;;9.93;;
21175;SDS011;10746;50.178;8.186;2022-12-18T05:33:39;26.93;;;11.00;;
21175;SDS011;10746;50.178;8.186;2022-12-18T05:36:07;25.33;;;11.33;;
21175;SDS011;10746;50.178;8.186;2022-12-18T05:38:36;23.87;;;11.17;;
21175;SDS011;10746;50.178;8.186;2022-12-18T05:41:06;23.53;;;9.77;;
21175;SDS011;10746;50.178;8.186;2022-12-18T05:43:34;21.23;;;9.37;;
21175;SDS011;10746;50.178;8.186;2022-12-18T05:46:03;26.67;;;11.23;;
21175;SDS011;10746;50.178;8.186;2022-12-18T05:48:31;27.30;;;12.23;;
21175;SDS011;10746;50.178;8.186;2022-12-18T05:51:02;26.20;;;12.07;;
21175;SDS011;10746;50.178;8.186;2022-12-18T05:53:31;26.30;;;10.87;;
21175;SDS011;10746;50.178;8.186;2022-12-18T05:55:59;27.97;;;11.73;;
21175;SDS011;10746;50.178;8.186;2022-12-18T05:58:29;26.13;;;11.07;;
21175;SDS011;10746;50.178;8.186;2022-12-18T06:00:56;29.23;;;11.90;;
21175;SDS011;10746;50.178;8.186;2022-12-18T06:03:23;25.97;;;10.10;;
21175;SDS011;10746;50.178;8.186;2022-12-18T06:05:50;19.10;;;9.47;;
21175;SDS011;10746;50.178;8.186;2022-12-18T06:08:17;24.00;;;10.77;;
21175;SDS011;10746;50.178;8.186;2022-12-18T06:10:48;27.67;;;11.23;;
21175;SDS011;10746;50.178;8.186;2022-12-18T06:13:17;25.67;;;11.17;;
21175;SDS011;10746;50.178;8.186;2022-12-18T06:15:45;19.40;;;9.30;;
21175;SDS011;10746;50.178;8.186;2022-12-18T06:18:12;30.73;;;10.43;;
21175;SDS011;10746;50.178;8.186;2022-12-18T06:20:39;22.13;;;9.60;;
21175;SDS011;10746;50.178;8.186;2022-12-18T06:23:06;23.10;;;10.30;;
21175;SDS011;10746;50.178;8.186;2022-12-18T06:25:36;20.50;;;8.70;;
21175;SDS011;10746;50.178;8.186;2022-12-18T06:28:03;22.37;;;9.23;;
21175;SDS011;10746;50.178;8.186;2022-12-18T06:30:30;17.73;;;8.60;;
21175;SDS011;10746;50.178;8.186;2022-12-18T06:32:58;23.27;;;10.53;;
21175;SDS011;10746;50.178;8.186;2022-12-18T06:35:25;25.20;;;10.23;;
21175;SDS011;10746;50.178;8.186;2022-12-18T06:37:52;16.70;;;8.10;;
21175;SDS011;10746;50.178;8.186;2022-12-18T06:40:18;28.70;;;10.80;;
21175;SDS011;10746;50.178;8.186;2022-12-18T06:42:45;27.70;;;10.93;;
21175;SDS011;10746;50.178;8.186;2022-12-18T06:45:12;23.03;;;11.23;;
21175;SDS011;10746;50.178;8.186;2022-12-18T06:47:39;29.37;;;10.53;;
21175;SDS011;10746;50.178;8.186;2022-12-18T06:50:07;22.97;;;10.77;;
21175;SDS011;10746;50.178;8.186;2022-12-18T06:52:34;23.47;;;10.70;;
21175;SDS011;10746;50.178;8.186;2022-12-18T06:55:02;24.67;;;10.20;;
21175;SDS011;10746;50.178;8.186;2022-12-18T06:57:29;26.43;;;9.77;;
21175;SDS011;10746;50.178;8.186;2022-12-18T06:59:55;28.27;;;12.00;;
21175;SDS011;10746;50.178;8.186;2022-12-18T07:02:22;27.17;;;11.50;;
21175;SDS011;10746;50.178;8.186;2022-12-18T07:04:49;21.00;;;9.80;;
21175;SDS011;10746;50.178;8.186;2022-12-18T07:07:17;22.27;;;10.87;;
21175;SDS011;10746;50.178;8.186;2022-12-18T07:09:44;24.60;;;11.23;;
21175;SDS011;10746;50.178;8.186;2022-12-18T07:12:10;25.70;;;9.73;;
21175;SDS011;10746;50.178;8.186;2022-12-18T07:14:37;24.63;;;10.37;;
21175;SDS011;10746;50.178;8.186;2022-12-18T07:17:04;26.67;;;9.90;;
21175;SDS011;10746;50.178;8.186;2022-12-18T07:19:31;28.07;;;10.80;;
21175;SDS011;10746;50.178;8.186;2022-12-18T07:21:57;27.10;;;10.47;;
21175;SDS011;10746;50.178;8.186;2022-12-18T07:24:25;26.27;;;11.83;;
21175;SDS011;10746;50.178;8.186;2022-12-18T07:26:52;25.73;;;10.10;;
21175;SDS011;10746;50.178;8.186;2022-12-18T07:29:19;18.80;;;8.07;;
21175;SDS011;10746;50.178;8.186;2022-12-18T07:31:46;20.10;;;9.07;;
21175;SDS011;10746;50.178;8.186;2022-12-18T07:34:14;22.87;;;10.07;;
21175;SDS011;10746;50.178;8.186;2022-12-18T07:36:41;14.57;;;7.17;;
21175;SDS011;10746;50.178;8.186;2022-12-18T07:39:08;25.27;;;11.30;;
21175;SDS011;10746;50.178;8.186;2022-12-18T07:41:37;22.97;;;10.33;;
21175;SDS011;10746;50.178;8.186;2022-12-18T07:44:08;23.70;;;10.27;;
21175;SDS011;10746;50.178;8.186;2022-12-18T07:46:35;23.07;;;9.63;;
21175;SDS011;10746;50.178;8.186;2022-12-18T07:49:02;21.33;;;9.40;;
21175;SDS011;10746;50.178;8.186;2022-12-18T07:51:29;23.77;;;9.93;;
21175;SDS011;10746;50.178;8.186;2022-12-18T07:53:56;24.40;;;9.53;;
21175;SDS011;10746;50.178;8.186;2022-12-18T07:56:23;29.03;;;10.03;;
21175;SDS011;10746;50.178;8.186;2022-12-18T07:58:51;17.07;;;8.20;;
21175;SDS011;10746;50.178;8.186;2022-12-18T08:01:17;23.67;;;11.37;;
21175;SDS011;10746;50.178;8.186;2022-12-18T08:03:44;26.07;;;10.00;;
21175;SDS011;10746;50.178;8.186;2022-12-18T08:06:11;22.77;;;10.77;;
21175;SDS011;10746;50.178;8.186;2022-12-18T08:08:37;24.70;;;10.47;;
21175;SDS011;10746;50.178;8.186;2022-12-18T08:11:06;17.80;;;9.90;;
21175;SDS011;10746;50.178;8.186;2022-12-18T08:13:33;18.03;;;7.30;;
21175;SDS011;10746;50.178;8.186;2022-12-18T08:16:01;21.60;;;9.73;;
21175;SDS011;10746;50.178;8.186;2022-12-18T08:18:33;26.40;;;9.67;;
21175;SDS011;10746;50.178;8.186;2022-12-18T08:21:07;20.97;;;9.53;;
21175;SDS011;10746;50.178;8.186;2022-12-18T08:23:34;21.40;;;9.07;;
21175;SDS011;10746;50.178;8.186;2022-12-18T08:26:01;18.03;;;9.03;;
21175;SDS011;10746;50.178;8.186;2022-12-18T08:28:28;19.00;;;8.13;;
21175;SDS011;10746;50.178;8.186;2022-12-18T08:30:55;21.23;;;8.50;;
21175;SDS011;10746;50.178;8.186;2022-12-18T08:33:23;24.57;;;11.03;;
21175;SDS011;10746;50.178;8.186;2022-12-18T08:35:50;28.23;;;11.23;;
21175;SDS011;10746;50.178;8.186;2022-12-18T08:38:16;18.17;;;8.93;;
21175;SDS011;10746;50.178;8.186;2022-12-18T08:40:43;29.67;;;10.83;;
21175;SDS011;10746;50.178;8.186;2022-12-18T08:43:10;38.33;;;10.90;;
21175;SDS011;10746;50.178;8.186;2022-12-18T08:45:55;24.73;;;9.83;;
21175;SDS011;10746;50.178;8.186;2022-12-18T08:48:21;17.93;;;8.43;;
21175;SDS011;10746;50.178;8.186;2022-12-18T08:50:53;21.90;;;8.67;;
21175;SDS011;10746;50.178;8.186;2022-12-18T08:53:21;14.47;;;8.00;;
21175;SDS011;10746;50.178;8.186;2022-12-18T08:55:50;17.40;;;8.60;;
21175;SDS011;10746;50.178;8.186;2022-12-18T08:58:17;24.37;;;10.47;;
21175;SDS011;10746;50.178;8.186;2022-12-18T09:00:44;19.90;;;10.13;;
21175;SDS011;10746;50.178;8.186;2022-12-18T09:03:12;21.77;;;10.30;;
21175;SDS011;10746;50.178;8.186;2022-12-18T09:05:40;28.17;;;10.93;;
21175;SDS011;10746;50.178;8.186;2022-12-18T09:08:07;18.53;;;9.73;;
21175;SDS011;10746;50.178;8.186;2022-12-18T09:10:34;28.63;;;11.37;;
21175;SDS011;10746;50.178;8.186;2022-12-18T09:13:06;24.43;;;10.70;;
21175;SDS011;10746;50.178;8.186;2022-12-18T09:15:33;33.27;;;12.53;;
21175;SDS011;10746;50.178;8.186;2022-12-18T09:18:00;29.50;;;10.73;;
21175;SDS011;10746;50.178;8.186;2022-12-18T09:20:27;22.03;;;10.87;;
21175;SDS011;10746;50.178;8.186;2022-12-18T09:22:56;27.83;;;12.67;;
21175;SDS011;10746;50.178;8.186;2022-12-18T09:25:22;23.20;;;11.00;;
21175;SDS011;10746;50.178;8.186;2022-12-18T09:27:49;28.40;;;12.90;;
21175;SDS011;10746;50.178;8.186;2022-12-18T09:30:16;28.83;;;11.93;;
21175;SDS011;10746;50.178;8.186;2022-12-18T09:32:43;30.20;;;13.90;;
21175;SDS011;10746;50.178;8.186;2022-12-18T09:35:09;27.83;;;12.20;;
21175;SDS011;10746;50.178;8.186;2022-12-18T09:37:36;21.17;;;9.63;;
21175;SDS011;10746;50.178;8.186;2022-12-18T09:40:05;24.00;;;11.37;;
21175;SDS011;10746;50.178;8.186;2022-12-18T09:42:33;21.70;;;10.80;;
21175;SDS011;10746;50.178;8.186;2022-12-18T09:45:00;28.13;;;11.67;;
21175;SDS011;10746;50.178;8.186;2022-12-18T09:47:29;30.80;;;11.33;;
21175;SDS011;10746;50.178;8.186;2022-12-18T09:50:01;20.67;;;9.40;;
21175;SDS011;10746;50.178;8.186;2022-12-18T09:52:30;23.07;;;10.50;;
21175;SDS011;10746;50.178;8.186;2022-12-18T09:55:03;22.70;;;9.37;;
21175;SDS011;10746;50.178;8.186;2022-12-18T09:57:39;17.53;;;9.03;;
21175;SDS011;10746;50.178;8.186;2022-12-18T10:00:15;23.67;;;9.77;;
21175;SDS011;10746;50.178;8.186;2022-12-18T10:02:44;23.47;;;9.83;;
21175;SDS011;10746;50.178;8.186;2022-12-18T10:05:12;30.13;;;12.20;;
21175;SDS011;10746;50.178;8.186;2022-12-18T10:07:44;34.17;;;12.83;;
21175;SDS011;10746;50.178;8.186;2022-12-18T10:10:23;24.57;;;9.73;;
21175;SDS011;10746;50.178;8.186;2022-12-18T10:12:58;28.63;;;12.13;;
21175;SDS011;10746;50.178;8.186;2022-12-18T10:15:32;29.37;;;11.57;;
21175;SDS011;10746;50.178;8.186;2022-12-18T10:18:07;25.87;;;11.47;;
21175;SDS011;10746;50.178;8.186;2022-12-18T10:20:45;19.90;;;10.07;;
21175;SDS011;10746;50.178;8.186;2022-12-18T10:23:15;18.27;;;8.23;;
21175;SDS011;10746;50.178;8.186;2022-12-18T10:25:53;29.83;;;11.77;;
21175;SDS011;10746;50.178;8.186;2022-12-18T10:28:23;34.20;;;13.67;;
21175;SDS011;10746;50.178;8.186;2022-12-18T10:30:52;22.53;;;9.23;;
21175;SDS011;10746;50.178;8.186;2022-12-18T10:33:19;27.77;;;12.30;;
21175;SDS011;10746;50.178;8.186;2022-12-18T10:35:48;27.23;;;11.00;;
21175;SDS011;10746;50.178;8.186;2022-12-18T10:38:21;19.57;;;10.53;;
21175;SDS011;10746;50.178;8.186;2022-12-18T10:40:52;27.03;;;12.90;;
21175;SDS011;10746;50.178;8.186;2022-12-18T10:43:21;23.90;;;11.40;;
21175;SDS011;10746;50.178;8.186;2022-12-18T10:46:04;30.53;;;14.20;;
21175;SDS011;10746;50.178;8.186;2022-12-18T10:48:39;27.23;;;12.33;;
21175;SDS011;10746;50.178;8.186;2022-12-18T10:51:19;34.97;;;14.03;;
21175;SDS011;10746;50.178;8.186;2022-12-18T10:53:51;30.23;;;12.83;;
21175;SDS011;10746;50.178;8.186;2022-12-18T10:56:22;35.47;;;14.43;;
21175;SDS011;10746;50.178;8.186;2022-12-18T10:58:55;31.87;;;13.97;;
21175;SDS011;10746;50.178;8.186;2022-12-18T11:01:24;35.43;;;15.53;;
21175;SDS011;10746;50.178;8.186;2022-12-18T11:03:58;29.40;;;12.27;;
21175;SDS011;10746;50.178;8.186;2022-12-18T11:06:27;30.80;;;13.10;;
21175;SDS011;10746;50.178;8.186;2022-12-18T11:08:58;27.20;;;12.90;;
21175;SDS011;10746;50.178;8.186;2022-12-18T11:11:27;30.60;;;12.17;;
21175;SDS011;10746;50.178;8.186;2022-12-18T11:13:58;34.67;;;15.60;;
21175;SDS011;10746;50.178;8.186;2022-12-18T11:16:28;38.73;;;15.20;;
21175;SDS011;10746;50.178;8.186;2022-12-18T11:19:13;31.37;;;13.83;;
21175;SDS011;10746;50.178;8.186;2022-12-18T11:21:47;36.60;;;14.87;;
21175;SDS011;10746;50.178;8.186;2022-12-18T11:24:22;28.97;;;11.20;;
21175;SDS011;10746;50.178;8.186;2022-12-18T11:26:54;34.33;;;14.10;;
21175;SDS011;10746;50.178;8.186;2022-12-18T11:29:23;30.60;;;13.20;;
21175;SDS011;10746;50.178;8.186;2022-12-18T11:32:03;34.70;;;14.03;;
21175;SDS011;10746;50.178;8.186;2022-12-18T11:34:59;35.87;;;14.63;;
21175;SDS011;10746;50.178;8.186;2022-12-18T11:37:35;37.80;;;13.60;;
21175;SDS011;10746;50.178;8.186;2022-12-18T11:40:02;33.97;;;14.00;;
21175;SDS011;10746;50.178;8.186;2022-12-18T11:42:36;28.27;;;12.03;;
21175;SDS011;10746;50.178;8.186;2022-12-18T11:45:14;30.30;;;13.33;;
21175;SDS011;10746;50.178;8.186;2022-12-18T11:47:52;32.53;;;13.83;;
21175;SDS011;10746;50.178;8.186;2022-12-18T11:50:24;44.13;;;16.37;;
21175;SDS011;10746;50.178;8.186;2022-12-18T11:52:52;40.37;;;16.47;;
21175;SDS011;10746;50.178;8.186;2022-12-18T11:55:21;36.27;;;14.03;;
21175;SDS011;10746;50.178;8.186;2022-12-18T11:57:57;39.57;;;17.20;;
21175;SDS011;10746;50.178;8.186;2022-12-18T12:00:31;29.73;;;12.70;;
21175;SDS011;10746;50.178;8.186;2022-12-18T12:05:58;35.47;;;16.37;;
21175;SDS011;10746;50.178;8.186;2022-12-18T12:08:38;53.10;;;19.27;;
21175;SDS011;10746;50.178;8.186;2022-12-18T12:11:20;33.47;;;14.33;;
21175;SDS011;10746;50.178;8.186;2022-12-18T12:14:00;36.80;;;16.03;;
21175;SDS011;10746;50.178;8.186;2022-12-18T12:16:48;45.47;;;19.33;;
21175;SDS011;10746;50.178;8.186;2022-12-18T12:19:25;45.37;;;18.87;;
21175;SDS011;10746;50.178;8.186;2022-12-18T12:22:04;37.70;;;15.80;;
21175;SDS011;10746;50.178;8.186;2022-12-18T12:24:39;31.03;;;13.70;;
21175;SDS011;10746;50.178;8.186;2022-12-18T12:27:16;47.53;;;17.30;;
21175;SDS011;10746;50.178;8.186;2022-12-18T12:29:53;31.63;;;13.93;;
21175;SDS011;10746;50.178;8.186;2022-12-18T12:32:36;31.93;;;13.70;;
21175;SDS011;10746;50.178;8.186;2022-12-18T12:35:14;35.40;;;14.73;;
21175;SDS011;10746;50.178;8.186;2022-12-18T12:37:59;37.37;;;14.83;;
21175;SDS011;10746;50.178;8.186;2022-12-18T12:40:33;42.17;;;18.07;;
21175;SDS011;10746;50.178;8.186;2022-12-18T12:43:05;30.93;;;14.20;;
21175;SDS011;10746;50.178;8.186;2022-12-18T12:45:48;49.47;;;18.70;;
21175;SDS011;10746;50.178;8.186;2022-12-18T12:48:20;43.00;;;17.67;;
21175;SDS011;10746;50.178;8.186;2022-12-18T12:50:57;44.33;;;16.77;;
21175;SDS011;10746;50.178;8.186;2022-12-18T12:53:28;30.53;;;13.37;;
21175;SDS011;10746;50.178;8.186;2022-12-18T12:55:57;44.73;;;18.13;;
21175;SDS011;10746;50.178;8.186;2022-12-18T12:58:26;36.07;;;14.93;;
21175;SDS011;10746;50.178;8.186;2022-12-18T13:01:04;38.63;;;14.77;;
21175;SDS011;10746;50.178;8.186;2022-12-18T13:03:41;43.07;;;16.33;;
21175;SDS011;10746;50.178;8.186;2022-12-18T13:06:14;46.10;;;17.70;;
21175;SDS011;10746;50.178;8.186;2022-12-18T13:08:53;48.63;;;16.60;;
21175;SDS011;10746;50.178;8.186;2022-12-18T13:11:28;32.57;;;13.40;;
21175;SDS011;10746;50.178;8.186;2022-12-18T13:14:20;43.00;;;15.57;;
21175;SDS011;10746;50.178;8.186;2022-12-18T13:16:49;41.80;;;16.20;;
21175;SDS011;10746;50.178;8.186;2022-12-18T13:19:21;35.93;;;14.00;;
21175;SDS011;10746;50.178;8.186;2022-12-18T13:21:52;41.27;;;15.83;;
21175;SDS011;10746;50.178;8.186;2022-12-18T13:24:23;43.10;;;15.33;;
21175;SDS011;10746;50.178;8.186;2022-12-18T13:26:51;44.63;;;17.63;;
21175;SDS011;10746;50.178;8.186;2022-12-18T13:32:22;43.37;;;16.37;;
21175;SDS011;10746;50.178;8.186;2022-12-18T13:37:53;40.53;;;15.00;;
21175;SDS011;10746;50.178;8.186;2022-12-18T13:43:31;40.53;;;14.67;;
21175;SDS011;10746;50.178;8.186;2022-12-18T13:46:05;57.00;;;19.23;;
21175;SDS011;10746;50.178;8.186;2022-12-18T13:48:49;48.90;;;19.53;;
21175;SDS011;10746;50.178;8.186;2022-12-18T13:51:27;40.07;;;16.93;;
21175;SDS011;10746;50.178;8.186;2022-12-18T13:53:56;31.80;;;13.47;;
21175;SDS011;10746;50.178;8.186;2022-12-18T13:56:26;36.80;;;16.07;;
21175;SDS011;10746;50.178;8.186;2022-12-18T13:59:14;37.33;;;14.13;;
21175;SDS011;10746;50.178;8.186;2022-12-18T14:01:43;28.80;;;12.10;;
21175;SDS011;10746;50.178;8.186;2022-12-18T14:04:17;37.53;;;14.80;;
21175;SDS011;10746;50.178;8.186;2022-12-18T14:06:47;30.67;;;12.23;;
21175;SDS011;10746;50.178;8.186;2022-12-18T14:09:16;34.47;;;14.30;;
21175;SDS011;10746;50.178;8.186;2022-12-18T14:11:51;37.37;;;14.37;;
21175;SDS011;10746;50.178;8.186;2022-12-18T14:14:40;33.77;;;13.53;;
21175;SDS011;10746;50.178;8.186;2022-12-18T14:17:08;37.00;;;15.33;;
21175;SDS011;10746;50.178;8.186;2022-12-18T14:19:37;27.97;;;12.13;;
21175;SDS011;10746;50.178;8.186;2022-12-18T14:22:11;36.50;;;14.03;;
21175;SDS011;10746;50.178;8.186;2022-12-18T14:24:42;37.87;;;13.20;;
21175;SDS011;10746;50.178;8.186;2022-12-18T14:27:17;37.30;;;12.57;;
21175;SDS011;10746;50.178;8.186;2022-12-18T14:29:47;37.60;;;15.17;;
21175;SDS011;10746;50.178;8.186;2022-12-18T14:32:15;44.07;;;15.23;;
21175;SDS011;10746;50.178;8.186;2022-12-18T14:34:44;38.03;;;14.10;;
21175;SDS011;10746;50.178;8.186;2022-12-18T14:37:12;41.03;;;14.80;;
21175;SDS011;10746;50.178;8.186;2022-12-18T14:39:40;38.17;;;13.50;;
21175;SDS011;10746;50.178;8.186;2022-12-18T14:42:17;51.73;;;19.30;;
21175;SDS011;10746;50.178;8.186;2022-12-18T14:44:44;31.57;;;13.73;;
21175;SDS011;10746;50.178;8.186;2022-12-18T14:47:13;40.37;;;14.80;;
21175;SDS011;10746;50.178;8.186;2022-12-18T14:49:41;41.07;;;15.37;;
21175;SDS011;10746;50.178;8.186;2022-12-18T14:52:16;36.97;;;13.13;;
21175;SDS011;10746;50.178;8.186;2022-12-18T14:54:48;32.20;;;12.47;;